sensor_id;sensor_type;location;lat;lon;timestamp;pressure;altitude;pressure_sealevel;temperature;humidity
17260;BME280;8746;49.230;9.220;2023-02-28T00:00:07;100840.38;;;-1.54;74.99
17260;BME280;8746;49.230;9.220;2023-02-28T00:02:39;100845.66;;;-1.51;76.13
17260;BME280;8746;49.230;9.220;2023-02-28T00:05:05;100845.41;;;-1.61;75.27
17260;BME280;8746;49.230;9.220;2023-02-28T00:07:30;100851.38;;;-1.63;76.11
17260;BME280;8746;49.230;9.220;2023-02-28T00:09:56;100849.59;;;-1.66;76.14
17260;BME280;8746;49.230;9.220;2023-02-28T00:12:21;100843.56;;;-1.66;75.91
17260;BME280;8746;49.230;9.220;2023-02-28T00:14:47;100852.06;;;-1.72;76.21
17260;BME280;8746;49.230;9.220;2023-02-28T00:17:12;100846.72;;;-1.78;76.86
17260;BME280;8746;49.230;9.220;2023-02-28T00:19:37;100847.72;;;-1.71;76.68
17260;BME280;8746;49.230;9.220;2023-02-28T00:22:03;100849.22;;;-1.81;77.22
17260;BME280;8746;49.230;9.220;2023-02-28T00:24:28;100857.94;;;-1.78;77.37
17260;BME280;8746;49.230;9.220;2023-02-28T00:26:53;100850.19;;;-1.78;77.61
17260;BME280;8746;49.230;9.220;2023-02-28T00:29:19;100844.16;;;-1.77;77.76
17260;BME280;8746;49.230;9.220;2023-02-28T00:31:44;100845.91;;;-1.75;77.88
17260;BME280;8746;49.230;9.220;2023-02-28T00:34:09;100848.34;;;-1.83;77.55
17260;BME280;8746;49.230;9.220;2023-02-28T00:36:35;100842.13;;;-1.90;77.70
17260;BME280;8746;49.230;9.220;2023-02-28T00:39:00;100849.19;;;-1.83;78.41
17260;BME280;8746;49.230;9.220;2023-02-28T00:41:25;100847.53;;;-1.81;77.96
17260;BME280;8746;49.230;9.220;2023-02-28T00:43:51;100845.91;;;-1.75;78.40
17260;BME280;8746;49.230;9.220;2023-02-28T00:46:16;100842.19;;;-1.87;78.43
17260;BME280;8746;49.230;9.220;2023-02-28T00:48:41;100847.22;;;-1.93;78.50
17260;BME280;8746;49.230;9.220;2023-02-28T00:51:07;100838.53;;;-1.95;78.84
17260;BME280;8746;49.230;9.220;2023-02-28T00:53:32;100842.84;;;-1.96;78.65
17260;BME280;8746;49.230;9.220;2023-02-28T00:55:58;100840.28;;;-1.94;78.85
17260;BME280;8746;49.230;9.220;2023-02-28T00:58:24;100841.09;;;-1.97;78.52
17260;BME280;8746;49.230;9.220;2023-02-28T01:00:51;100842.88;;;-1.94;78.86
17260;BME280;8746;49.230;9.220;2023-02-28T01:03:18;100841.78;;;-2.04;79.13
17260;BME280;8746;49.230;9.220;2023-02-28T01:05:45;100842.72;;;-2.00;78.80
17260;BME280;8746;49.230;9.220;2023-02-28T01:08:11;100845.31;;;-2.00;79.00
17260;BME280;8746;49.230;9.220;2023-02-28T01:10:37;100845.09;;;-2.08;78.86
17260;BME280;8746;49.230;9.220;2023-02-28T01:13:03;100838.22;;;-2.07;79.11
17260;BME280;8746;49.230;9.220;2023-02-28T01:15:29;100840.94;;;-2.03;78.91
17260;BME280;8746;49.230;9.220;2023-02-28T01:17:54;100836.31;;;-2.15;79.09
17260;BME280;8746;49.230;9.220;2023-02-28T01:20:20;100833.06;;;-2.07;79.25
17260;BME280;8746;49.230;9.220;2023-02-28T01:22:45;100840.00;;;-2.06;79.31
17260;BME280;8746;49.230;9.220;2023-02-28T01:25:12;100840.50;;;-2.20;79.11
17260;BME280;8746;49.230;9.220;2023-02-28T01:27:37;100850.81;;;-2.21;80.00
17260;BME280;8746;49.230;9.220;2023-02-28T01:30:05;100850.81;;;-2.21;79.73
17260;BME280;8746;49.230;9.220;2023-02-28T01:32:31;100842.13;;;-2.23;79.86
17260;BME280;8746;49.230;9.220;2023-02-28T01:34:56;100842.09;;;-2.25;79.76
17260;BME280;8746;49.230;9.220;2023-02-28T01:37:21;100851.69;;;-2.21;79.18
17260;BME280;8746;49.230;9.220;2023-02-28T01:39:46;100837.75;;;-2.26;79.81
17260;BME280;8746;49.230;9.220;2023-02-28T01:42:12;100839.56;;;-2.22;79.79
17260;BME280;8746;49.230;9.220;2023-02-28T01:44:58;100841.06;;;-2.30;79.80
17260;BME280;8746;49.230;9.220;2023-02-28T01:47:27;100839.25;;;-2.34;79.98
17260;BME280;8746;49.230;9.220;2023-02-28T01:49:54;100842.66;;;-2.35;80.31
17260;BME280;8746;49.230;9.220;2023-02-28T01:52:20;100842.00;;;-2.28;79.93
17260;BME280;8746;49.230;9.220;2023-02-28T01:54:51;100830.84;;;-2.27;79.85
17260;BME280;8746;49.230;9.220;2023-02-28T01:57:22;100829.00;;;-2.31;80.26
17260;BME280;8746;49.230;9.220;2023-02-28T02:00:12;100829.84;;;-2.32;80.71
17260;BME280;8746;49.230;9.220;2023-02-28T02:02:42;100833.25;;;-2.33;80.75
17260;BME280;8746;49.230;9.220;2023-02-28T02:05:12;100828.81;;;-2.37;80.29
17260;BME280;8746;49.230;9.220;2023-02-28T02:07:41;100827.00;;;-2.42;80.48
17260;BME280;8746;49.230;9.220;2023-02-28T02:10:20;100827.84;;;-2.43;80.89
17260;BME280;8746;49.230;9.220;2023-02-28T02:13:00;100829.75;;;-2.35;80.80
17260;BME280;8746;49.230;9.220;2023-02-28T02:15:40;100833.94;;;-2.40;80.38
17260;BME280;8746;49.230;9.220;2023-02-28T02:18:27;100821.66;;;-2.48;80.96
17260;BME280;8746;49.230;9.220;2023-02-28T02:29:12;100813.25;;;-2.40;80.53
17260;BME280;8746;49.230;9.220;2023-02-28T02:34:36;100812.03;;;-2.53;80.78
17260;BME280;8746;49.230;9.220;2023-02-28T02:37:31;100809.50;;;-2.52;80.32
17260;BME280;8746;49.230;9.220;2023-02-28T02:40:25;100803.44;;;-2.52;80.76
17260;BME280;8746;49.230;9.220;2023-02-28T02:43:20;100805.31;;;-2.48;80.85
17260;BME280;8746;49.230;9.220;2023-02-28T02:45:52;100812.19;;;-2.47;80.64
17260;BME280;8746;49.230;9.220;2023-02-28T02:48:25;100806.81;;;-2.56;80.90
17260;BME280;8746;49.230;9.220;2023-02-28T02:50:54;100813.72;;;-2.55;80.46
17260;BME280;8746;49.230;9.220;2023-02-28T02:53:27;100808.50;;;-2.57;80.68
17260;BME280;8746;49.230;9.220;2023-02-28T02:55:55;100808.72;;;-2.49;80.90
17260;BME280;8746;49.230;9.220;2023-02-28T02:58:26;100805.81;;;-2.62;80.66
17260;BME280;8746;49.230;9.220;2023-02-28T03:00:57;100805.63;;;-2.68;80.89
17260;BME280;8746;49.230;9.220;2023-02-28T03:03:25;100812.50;;;-2.68;80.76
17260;BME280;8746;49.230;9.220;2023-02-28T03:05:58;100805.91;;;-2.57;80.59
17260;BME280;8746;49.230;9.220;2023-02-28T03:08:24;100805.72;;;-2.65;80.48
17260;BME280;8746;49.230;9.220;2023-02-28T03:11:01;100805.81;;;-2.62;80.59
17260;BME280;8746;49.230;9.220;2023-02-28T03:13:44;100801.97;;;-2.44;80.96
17260;BME280;8746;49.230;9.220;2023-02-28T03:19:23;100794.97;;;-2.48;80.94
17260;BME280;8746;49.230;9.220;2023-02-28T03:30:04;100807.88;;;-2.48;80.71
17260;BME280;8746;49.230;9.220;2023-02-28T03:33:14;100806.00;;;-2.54;81.15
17260;BME280;8746;49.230;9.220;2023-02-28T03:36:00;100806.69;;;-2.60;80.69
17260;BME280;8746;49.230;9.220;2023-02-28T03:38:38;100804.09;;;-2.61;81.30
17260;BME280;8746;49.230;9.220;2023-02-28T03:41:15;100805.88;;;-2.59;81.34
17260;BME280;8746;49.230;9.220;2023-02-28T03:43:49;100809.38;;;-2.56;81.40
17260;BME280;8746;49.230;9.220;2023-02-28T03:46:19;100792.41;;;-2.47;81.31
17260;BME280;8746;49.230;9.220;2023-02-28T03:49:04;100806.88;;;-2.53;80.32
17260;BME280;8746;49.230;9.220;2023-02-28T03:51:31;100804.38;;;-2.50;81.55
17260;BME280;8746;49.230;9.220;2023-02-28T03:54:01;100813.09;;;-2.47;80.71
17260;BME280;8746;49.230;9.220;2023-02-28T03:56:37;100807.03;;;-2.47;81.15
17260;BME280;8746;49.230;9.220;2023-02-28T04:01:48;100810.31;;;-2.54;81.72
17260;BME280;8746;49.230;9.220;2023-02-28T04:04:15;100807.66;;;-2.56;81.37
17260;BME280;8746;49.230;9.220;2023-02-28T04:06:43;100805.91;;;-2.57;81.25
17260;BME280;8746;49.230;9.220;2023-02-28T04:09:12;100806.63;;;-2.63;81.46
17260;BME280;8746;49.230;9.220;2023-02-28T04:11:40;100816.13;;;-2.62;81.13
17260;BME280;8746;49.230;9.220;2023-02-28T04:14:08;100812.16;;;-2.49;81.33
17260;BME280;8746;49.230;9.220;2023-02-28T04:16:35;100809.19;;;-2.64;80.79
17260;BME280;8746;49.230;9.220;2023-02-28T04:19:03;100806.00;;;-2.54;81.17
17260;BME280;8746;49.230;9.220;2023-02-28T04:21:31;100806.16;;;-2.48;81.18
17260;BME280;8746;49.230;9.220;2023-02-28T04:23:57;100807.50;;;-2.62;80.97
17260;BME280;8746;49.230;9.220;2023-02-28T04:26:27;100820.53;;;-2.58;81.55
17260;BME280;8746;49.230;9.220;2023-02-28T04:28:53;100814.50;;;-2.58;81.26
17260;BME280;8746;49.230;9.220;2023-02-28T04:31:18;100819.84;;;-2.52;81.49
17260;BME280;8746;49.230;9.220;2023-02-28T04:33:44;100805.84;;;-2.60;81.92
17260;BME280;8746;49.230;9.220;2023-02-28T04:36:09;100813.25;;;-2.40;81.79
17260;BME280;8746;49.230;9.220;2023-02-28T04:38:37;100814.75;;;-2.49;81.73
17260;BME280;8746;49.230;9.220;2023-02-28T04:41:03;100808.00;;;-2.44;81.89
17260;BME280;8746;49.230;9.220;2023-02-28T04:43:28;100810.84;;;-2.33;81.33
17260;BME280;8746;49.230;9.220;2023-02-28T04:45:55;100814.22;;;-2.37;81.71
17260;BME280;8746;49.230;9.220;2023-02-28T04:48:24;100809.84;;;-2.39;81.60
17260;BME280;8746;49.230;9.220;2023-02-28T04:50:51;100808.25;;;-2.34;81.58
17260;BME280;8746;49.230;9.220;2023-02-28T04:53:17;100801.28;;;-2.37;82.08
17260;BME280;8746;49.230;9.220;2023-02-28T04:55:43;100804.00;;;-2.32;81.08
17260;BME280;8746;49.230;9.220;2023-02-28T04:58:09;100813.09;;;-2.47;81.79
17260;BME280;8746;49.230;9.220;2023-02-28T05:00:34;100814.84;;;-2.46;81.59
17260;BME280;8746;49.230;9.220;2023-02-28T05:02:59;100821.34;;;-2.60;81.94
17260;BME280;8746;49.230;9.220;2023-02-28T05:05:25;100820.41;;;-2.62;82.10
17260;BME280;8746;49.230;9.220;2023-02-28T05:07:50;100827.38;;;-2.60;81.82
17260;BME280;8746;49.230;9.220;2023-02-28T05:10:15;100823.25;;;-2.53;81.67
17260;BME280;8746;49.230;9.220;2023-02-28T05:12:42;100813.41;;;-2.34;81.47
17260;BME280;8746;49.230;9.220;2023-02-28T05:15:13;100832.34;;;-2.35;81.00
17260;BME280;8746;49.230;9.220;2023-02-28T05:17:38;100829.41;;;-2.48;80.84
17260;BME280;8746;49.230;9.220;2023-02-28T05:20:05;100826.66;;;-2.54;80.85
17260;BME280;8746;49.230;9.220;2023-02-28T05:22:31;100830.78;;;-2.61;80.97
17260;BME280;8746;49.230;9.220;2023-02-28T05:24:57;100821.66;;;-2.48;81.40
17260;BME280;8746;49.230;9.220;2023-02-28T05:27:22;100820.56;;;-2.56;80.64
17260;BME280;8746;49.230;9.220;2023-02-28T05:29:48;100824.75;;;-2.61;80.32
17260;BME280;8746;49.230;9.220;2023-02-28T05:32:14;100827.34;;;-2.61;81.07
17260;BME280;8746;49.230;9.220;2023-02-28T05:34:40;100832.53;;;-2.60;80.82
17260;BME280;8746;49.230;9.220;2023-02-28T05:37:07;100826.50;;;-2.60;81.27
17260;BME280;8746;49.230;9.220;2023-02-28T05:39:35;100827.31;;;-2.63;81.32
17260;BME280;8746;49.230;9.220;2023-02-28T05:42:01;100824.78;;;-2.60;81.30
17260;BME280;8746;49.230;9.220;2023-02-28T05:44:26;100829.13;;;-2.59;80.86
17260;BME280;8746;49.230;9.220;2023-02-28T05:46:51;100832.97;;;-2.44;81.17
17260;BME280;8746;49.230;9.220;2023-02-28T05:49:17;100836.03;;;-2.58;80.92
17260;BME280;8746;49.230;9.220;2023-02-28T05:51:42;100831.69;;;-2.60;80.88
17260;BME280;8746;49.230;9.220;2023-02-28T05:54:08;100836.84;;;-2.60;81.38
17260;BME280;8746;49.230;9.220;2023-02-28T05:56:33;100837.00;;;-2.54;80.62
17260;BME280;8746;49.230;9.220;2023-02-28T05:59:04;100835.28;;;-2.53;81.14
17260;BME280;8746;49.230;9.220;2023-02-28T06:04:02;100834.28;;;-2.59;81.50
17260;BME280;8746;49.230;9.220;2023-02-28T06:06:28;100834.16;;;-2.63;81.39
17260;BME280;8746;49.230;9.220;2023-02-28T06:08:54;100844.44;;;-2.65;81.52
17260;BME280;8746;49.230;9.220;2023-02-28T06:11:20;100830.72;;;-2.64;81.32
17260;BME280;8746;49.230;9.220;2023-02-28T06:13:45;100836.63;;;-2.68;81.26
17260;BME280;8746;49.230;9.220;2023-02-28T06:16:11;100840.25;;;-2.61;81.16
17260;BME280;8746;49.230;9.220;2023-02-28T06:18:36;100839.63;;;-2.52;82.04
17260;BME280;8746;49.230;9.220;2023-02-28T06:21:02;100836.03;;;-2.58;81.46
17260;BME280;8746;49.230;9.220;2023-02-28T06:23:28;100842.63;;;-2.69;81.50
17260;BME280;8746;49.230;9.220;2023-02-28T06:25:53;100842.56;;;-2.70;82.23
17260;BME280;8746;49.230;9.220;2023-02-28T06:28:19;100840.19;;;-2.64;81.81
17260;BME280;8746;49.230;9.220;2023-02-28T06:30:44;100849.56;;;-2.68;82.77
17260;BME280;8746;49.230;9.220;2023-02-28T06:33:09;100851.41;;;-2.62;81.35
17260;BME280;8746;49.230;9.220;2023-02-28T06:35:35;100853.81;;;-2.68;81.44
17260;BME280;8746;49.230;9.220;2023-02-28T06:38:00;100853.19;;;-2.60;82.22
17260;BME280;8746;49.230;9.220;2023-02-28T06:40:25;100859.47;;;-2.51;81.64
17260;BME280;8746;49.230;9.220;2023-02-28T06:42:51;100858.13;;;-2.69;81.75
17260;BME280;8746;49.230;9.220;2023-02-28T06:45:17;100853.31;;;-2.56;81.60
17260;BME280;8746;49.230;9.220;2023-02-28T06:47:42;100852.41;;;-2.57;82.14
17260;BME280;8746;49.230;9.220;2023-02-28T06:50:11;100853.63;;;-2.44;81.29
17260;BME280;8746;49.230;9.220;2023-02-28T06:52:37;100862.56;;;-2.33;80.73
17260;BME280;8746;49.230;9.220;2023-02-28T06:55:06;100860.94;;;-2.29;80.77
17260;BME280;8746;49.230;9.220;2023-02-28T06:57:33;100863.44;;;-2.32;80.65
17260;BME280;8746;49.230;9.220;2023-02-28T07:00:00;100863.13;;;-2.45;80.60
17260;BME280;8746;49.230;9.220;2023-02-28T07:02:26;100873.84;;;-2.29;80.61
17260;BME280;8746;49.230;9.220;2023-02-28T07:04:52;100876.31;;;-2.34;80.84
17260;BME280;8746;49.230;9.220;2023-02-28T07:07:17;100878.03;;;-2.34;80.65
17260;BME280;8746;49.230;9.220;2023-02-28T07:09:43;100889.34;;;-2.29;80.09
17260;BME280;8746;49.230;9.220;2023-02-28T07:12:08;100886.44;;;-2.10;79.88
17260;BME280;8746;49.230;9.220;2023-02-28T07:14:36;100888.28;;;-2.05;80.25
17260;BME280;8746;49.230;9.220;2023-02-28T07:17:02;100893.22;;;-2.13;78.80
17260;BME280;8746;49.230;9.220;2023-02-28T07:19:27;100895.81;;;-2.13;79.69
17260;BME280;8746;49.230;9.220;2023-02-28T07:21:53;100891.28;;;-2.22;79.31
17260;BME280;8746;49.230;9.220;2023-02-28T07:24:18;100893.03;;;-2.21;79.47
17260;BME280;8746;49.230;9.220;2023-02-28T07:26:43;100902.03;;;-2.06;78.92
17260;BME280;8746;49.230;9.220;2023-02-28T07:29:09;100900.59;;;-1.95;78.94
17260;BME280;8746;49.230;9.220;2023-02-28T07:31:34;100898.06;;;-1.94;79.18
17260;BME280;8746;49.230;9.220;2023-02-28T07:33:59;100890.53;;;-1.84;78.86
17260;BME280;8746;49.230;9.220;2023-02-28T07:36:25;100904.03;;;-1.96;78.70
17260;BME280;8746;49.230;9.220;2023-02-28T07:38:50;100886.06;;;-1.90;78.28
17260;BME280;8746;49.230;9.220;2023-02-28T07:41:20;100897.34;;;-1.88;78.05
17260;BME280;8746;49.230;9.220;2023-02-28T07:43:46;100896.59;;;-1.84;77.93
17260;BME280;8746;49.230;9.220;2023-02-28T07:46:13;100887.25;;;-1.79;78.13
17260;BME280;8746;49.230;9.220;2023-02-28T07:48:43;100893.47;;;-1.70;77.36
17260;BME280;8746;49.230;9.220;2023-02-28T07:51:08;100890.19;;;-1.63;77.46
17260;BME280;8746;49.230;9.220;2023-02-28T07:53:34;100893.22;;;-1.45;77.48
17260;BME280;8746;49.230;9.220;2023-02-28T07:56:00;100898.41;;;-1.45;75.86
17260;BME280;8746;49.230;9.220;2023-02-28T07:58:27;100900.03;;;-1.50;75.50
17260;BME280;8746;49.230;9.220;2023-02-28T08:00:53;100889.97;;;-1.37;75.99
17260;BME280;8746;49.230;9.220;2023-02-28T08:03:20;100889.25;;;-1.32;75.66
17260;BME280;8746;49.230;9.220;2023-02-28T08:05:46;100891.94;;;-1.27;75.05
17260;BME280;8746;49.230;9.220;2023-02-28T08:08:11;100904.13;;;-1.21;74.71
17260;BME280;8746;49.230;9.220;2023-02-28T08:10:37;100896.28;;;-1.26;75.03
17260;BME280;8746;49.230;9.220;2023-02-28T08:13:02;100897.13;;;-1.27;74.57
17260;BME280;8746;49.230;9.220;2023-02-28T08:15:28;100889.75;;;-1.10;74.48
17260;BME280;8746;49.230;9.220;2023-02-28T08:17:54;100902.59;;;-1.15;73.86
17260;BME280;8746;49.230;9.220;2023-02-28T08:20:21;100896.00;;;-1.00;73.73
17260;BME280;8746;49.230;9.220;2023-02-28T08:22:47;100895.25;;;-0.94;73.50
17260;BME280;8746;49.230;9.220;2023-02-28T08:25:12;100895.19;;;-0.98;73.42
17260;BME280;8746;49.230;9.220;2023-02-28T08:27:37;100891.97;;;-0.86;73.47
17260;BME280;8746;49.230;9.220;2023-02-28T08:30:03;100903.47;;;-0.74;73.62
17260;BME280;8746;49.230;9.220;2023-02-28T08:32:28;100892.16;;;-0.79;72.78
17260;BME280;8746;49.230;9.220;2023-02-28T08:34:54;100898.09;;;-0.82;72.83
17260;BME280;8746;49.230;9.220;2023-02-28T08:37:19;100892.22;;;-0.75;72.12
17260;BME280;8746;49.230;9.220;2023-02-28T08:39:45;100891.94;;;-0.87;72.41
17260;BME280;8746;49.230;9.220;2023-02-28T08:42:10;100892.91;;;-0.84;72.58
17260;BME280;8746;49.230;9.220;2023-02-28T08:44:36;100888.91;;;-0.68;72.27
17260;BME280;8746;49.230;9.220;2023-02-28T08:47:01;100893.16;;;-0.71;72.02
17260;BME280;8746;49.230;9.220;2023-02-28T08:49:26;100895.00;;;-0.67;72.00
17260;BME280;8746;49.230;9.220;2023-02-28T08:51:51;100888.88;;;-0.69;71.93
17260;BME280;8746;49.230;9.220;2023-02-28T08:54:17;100898.66;;;-0.56;72.21
17260;BME280;8746;49.230;9.220;2023-02-28T08:56:45;100888.19;;;-0.62;72.33
17260;BME280;8746;49.230;9.220;2023-02-28T08:59:11;100891.81;;;-0.54;71.19
17260;BME280;8746;49.230;9.220;2023-02-28T09:01:37;100896.28;;;-0.46;71.40
17260;BME280;8746;49.230;9.220;2023-02-28T09:04:02;100885.31;;;-0.33;70.63
17260;BME280;8746;49.230;9.220;2023-02-28T09:06:28;100879.84;;;-0.01;70.66
17260;BME280;8746;49.230;9.220;2023-02-28T09:08:57;100892.09;;;0.06;69.82
17260;BME280;8746;49.230;9.220;2023-02-28T09:11:27;100879.22;;;0.12;69.80
17260;BME280;8746;49.230;9.220;2023-02-28T09:13:52;100888.28;;;-0.13;69.25
17260;BME280;8746;49.230;9.220;2023-02-28T09:16:18;100887.06;;;0.17;68.88
17260;BME280;8746;49.230;9.220;2023-02-28T09:18:43;100876.78;;;0.22;68.52
17260;BME280;8746;49.230;9.220;2023-02-28T09:21:11;100894.78;;;0.12;68.56
17260;BME280;8746;49.230;9.220;2023-02-28T09:23:42;100875.75;;;0.13;68.69
17260;BME280;8746;49.230;9.220;2023-02-28T09:26:13;100879.56;;;0.34;69.28
17260;BME280;8746;49.230;9.220;2023-02-28T09:28:39;100875.94;;;0.23;67.68
17260;BME280;8746;49.230;9.220;2023-02-28T09:31:04;100882.44;;;0.51;67.92
17260;BME280;8746;49.230;9.220;2023-02-28T09:33:30;100888.38;;;0.42;67.28
17260;BME280;8746;49.230;9.220;2023-02-28T09:36:00;100876.41;;;0.54;67.01
17260;BME280;8746;49.230;9.220;2023-02-28T09:38:26;100876.47;;;0.57;67.03
17260;BME280;8746;49.230;9.220;2023-02-28T09:40:56;100886.25;;;0.73;67.24
17260;BME280;8746;49.230;9.220;2023-02-28T09:43:24;100878.44;;;0.73;66.65
17260;BME280;8746;49.230;9.220;2023-02-28T09:46:02;100892.66;;;0.95;65.88
17260;BME280;8746;49.230;9.220;2023-02-28T09:48:39;100880.34;;;0.84;65.97
17260;BME280;8746;49.230;9.220;2023-02-28T09:51:23;100891.75;;;0.92;65.11
17260;BME280;8746;49.230;9.220;2023-02-28T09:53:53;100893.66;;;1.05;64.64
17260;BME280;8746;49.230;9.220;2023-02-28T09:56:31;100884.91;;;1.00;64.74
17260;BME280;8746;49.230;9.220;2023-02-28T10:01:39;100876.63;;;1.27;63.82
17260;BME280;8746;49.230;9.220;2023-02-28T10:07:35;100892.94;;;1.16;63.33
17260;BME280;8746;49.230;9.220;2023-02-28T10:10:14;100883.75;;;1.44;64.06
17260;BME280;8746;49.230;9.220;2023-02-28T10:12:44;100883.81;;;1.47;62.81
17260;BME280;8746;49.230;9.220;2023-02-28T10:15:14;100886.25;;;1.35;62.88
17260;BME280;8746;49.230;9.220;2023-02-28T10:17:43;100878.56;;;1.44;63.28
17260;BME280;8746;49.230;9.220;2023-02-28T10:20:14;100883.19;;;1.68;62.80
17260;BME280;8746;49.230;9.220;2023-02-28T10:25:26;100883.31;;;1.81;62.04
17260;BME280;8746;49.230;9.220;2023-02-28T10:27:54;100891.81;;;1.64;62.42
17260;BME280;8746;49.230;9.220;2023-02-28T10:30:22;100879.38;;;1.41;62.68
17260;BME280;8746;49.230;9.220;2023-02-28T10:32:52;100889.03;;;1.50;63.10
17260;BME280;8746;49.230;9.220;2023-02-28T10:35:23;100887.31;;;1.52;63.48
17260;BME280;8746;49.230;9.220;2023-02-28T10:37:57;100903.22;;;1.75;60.71
17260;BME280;8746;49.230;9.220;2023-02-28T10:42:56;100891.91;;;1.73;60.56
17260;BME280;8746;49.230;9.220;2023-02-28T10:45:22;100894.34;;;1.59;60.84
17260;BME280;8746;49.230;9.220;2023-02-28T11:03:43;100881.22;;;2.30;58.30
17260;BME280;8746;49.230;9.220;2023-02-28T11:06:16;100882.47;;;2.82;57.59
17260;BME280;8746;49.230;9.220;2023-02-28T11:08:57;100880.25;;;2.22;58.31
17260;BME280;8746;49.230;9.220;2023-02-28T11:11:25;100876.69;;;2.14;59.98
17260;BME280;8746;49.230;9.220;2023-02-28T11:13:53;100870.97;;;2.56;58.06
17260;BME280;8746;49.230;9.220;2023-02-28T11:16:20;100868.47;;;2.64;57.86
17260;BME280;8746;49.230;9.220;2023-02-28T11:18:54;100856.53;;;3.03;58.49
17260;BME280;8746;49.230;9.220;2023-02-28T11:21:29;100860.97;;;3.23;56.96
17260;BME280;8746;49.230;9.220;2023-02-28T11:24:03;100854.03;;;3.31;56.08
17260;BME280;8746;49.230;9.220;2023-02-28T11:26:45;100855.09;;;3.86;55.69
17260;BME280;8746;49.230;9.220;2023-02-28T11:29:22;100869.81;;;3.56;55.85
17260;BME280;8746;49.230;9.220;2023-02-28T11:34:39;100861.13;;;3.60;55.79
17260;BME280;8746;49.230;9.220;2023-02-28T11:37:11;100856.69;;;3.41;55.29
17260;BME280;8746;49.230;9.220;2023-02-28T11:39:36;100851.53;;;3.50;55.76
17260;BME280;8746;49.230;9.220;2023-02-28T11:47:41;100859.31;;;3.47;55.81
17260;BME280;8746;49.230;9.220;2023-02-28T11:53:24;100856.75;;;3.50;56.45
17260;BME280;8746;49.230;9.220;2023-02-28T11:56:08;100856.53;;;3.07;56.85
17260;BME280;8746;49.230;9.220;2023-02-28T12:09:46;100852.16;;;2.98;57.95
17260;BME280;8746;49.230;9.220;2023-02-28T12:12:44;100851.94;;;2.65;57.33
17260;BME280;8746;49.230;9.220;2023-02-28T12:18:22;100854.97;;;3.46;57.45
17260;BME280;8746;49.230;9.220;2023-02-28T12:21:08;100855.75;;;3.17;57.06
17260;BME280;8746;49.230;9.220;2023-02-28T12:24:00;100846.09;;;3.08;57.36
17260;BME280;8746;49.230;9.220;2023-02-28T12:26:37;100841.69;;;2.93;57.23
17260;BME280;8746;49.230;9.220;2023-02-28T12:29:30;100836.56;;;3.10;57.17
17260;BME280;8746;49.230;9.220;2023-02-28T12:32:34;100834.00;;;3.18;57.38
17260;BME280;8746;49.230;9.220;2023-02-28T12:35:22;100830.63;;;3.45;57.57
17260;BME280;8746;49.230;9.220;2023-02-28T12:37:56;100837.66;;;3.63;56.81
17260;BME280;8746;49.230;9.220;2023-02-28T12:40:27;100822.91;;;4.01;56.70
17260;BME280;8746;49.230;9.220;2023-02-28T12:43:03;100828.13;;;4.01;54.93
17260;BME280;8746;49.230;9.220;2023-02-28T12:45:50;100828.94;;;3.67;55.68
17260;BME280;8746;49.230;9.220;2023-02-28T12:48:25;100819.38;;;3.66;55.50
17260;BME280;8746;49.230;9.220;2023-02-28T12:50:53;100825.50;;;3.81;55.64
17260;BME280;8746;49.230;9.220;2023-02-28T12:53:31;100823.78;;;4.08;55.50
17260;BME280;8746;49.230;9.220;2023-02-28T13:07:10;100807.19;;;3.61;55.47
17260;BME280;8746;49.230;9.220;2023-02-28T13:09:52;100806.28;;;3.57;54.51
17260;BME280;8746;49.230;9.220;2023-02-28T13:12:17;100809.78;;;3.55;55.57
17260;BME280;8746;49.230;9.220;2023-02-28T13:14:43;100817.66;;;3.68;55.28
17260;BME280;8746;49.230;9.220;2023-02-28T13:19:41;100813.28;;;3.71;55.66
17260;BME280;8746;49.230;9.220;2023-02-28T13:22:44;100808.97;;;3.85;55.12
17260;BME280;8746;49.230;9.220;2023-02-28T13:27:49;100815.94;;;4.03;55.21
17260;BME280;8746;49.230;9.220;2023-02-28T13:33:33;100808.94;;;3.74;55.45
17260;BME280;8746;49.230;9.220;2023-02-28T13:41:50;100805.41;;;3.53;55.42
17260;BME280;8746;49.230;9.220;2023-02-28T13:44:23;100799.38;;;3.70;55.61
17260;BME280;8746;49.230;9.220;2023-02-28T13:51:49;100794.19;;;4.01;55.58
17260;BME280;8746;49.230;9.220;2023-02-28T13:54:39;100793.31;;;4.07;56.21
17260;BME280;8746;49.230;9.220;2023-02-28T14:00:21;100798.47;;;3.52;55.12
17260;BME280;8746;49.230;9.220;2023-02-28T14:08:35;100795.06;;;3.78;55.80
17260;BME280;8746;49.230;9.220;2023-02-28T14:11:15;100791.53;;;3.61;54.22
17260;BME280;8746;49.230;9.220;2023-02-28T14:13:48;100797.66;;;3.81;54.79
17260;BME280;8746;49.230;9.220;2023-02-28T14:16:24;100808.06;;;3.71;54.97
17260;BME280;8746;49.230;9.220;2023-02-28T14:18:58;100803.69;;;3.51;55.63
17260;BME280;8746;49.230;9.220;2023-02-28T14:21:29;100800.25;;;3.77;55.22
17260;BME280;8746;49.230;9.220;2023-02-28T14:27:03;100789.81;;;3.81;55.50
17260;BME280;8746;49.230;9.220;2023-02-28T14:37:47;100782.88;;;3.94;55.55
17260;BME280;8746;49.230;9.220;2023-02-28T14:40:21;100798.53;;;3.94;55.63
17260;BME280;8746;49.230;9.220;2023-02-28T14:42:58;100798.53;;;3.91;55.76
17260;BME280;8746;49.230;9.220;2023-02-28T14:45:28;100788.97;;;3.89;56.03
17260;BME280;8746;49.230;9.220;2023-02-28T14:47:54;100788.97;;;3.92;54.50
17260;BME280;8746;49.230;9.220;2023-02-28T14:50:27;100795.06;;;3.95;54.52
17260;BME280;8746;49.230;9.220;2023-02-28T14:52:54;100788.94;;;3.90;54.19
17260;BME280;8746;49.230;9.220;2023-02-28T14:55:25;100787.25;;;3.95;53.99
17260;BME280;8746;49.230;9.220;2023-02-28T14:57:57;100790.72;;;3.90;54.39
17260;BME280;8746;49.230;9.220;2023-02-28T15:00:29;100792.44;;;3.78;54.24
17260;BME280;8746;49.230;9.220;2023-02-28T15:02:57;100796.78;;;3.82;54.70
17260;BME280;8746;49.230;9.220;2023-02-28T15:05:29;100794.16;;;3.84;54.84
17260;BME280;8746;49.230;9.220;2023-02-28T15:08:21;100792.41;;;3.75;56.26
17260;BME280;8746;49.230;9.220;2023-02-28T15:10:58;100789.81;;;3.77;56.80
17260;BME280;8746;49.230;9.220;2023-02-28T15:13:51;100788.91;;;3.61;56.92
17260;BME280;8746;49.230;9.220;2023-02-28T15:16:20;100798.50;;;3.59;56.86
17260;BME280;8746;49.230;9.220;2023-02-28T15:21:31;100792.41;;;3.64;56.37
17260;BME280;8746;49.230;9.220;2023-02-28T15:24:03;100790.69;;;3.69;56.58
17260;BME280;8746;49.230;9.220;2023-02-28T15:26:34;100788.94;;;3.72;57.04
17260;BME280;8746;49.230;9.220;2023-02-28T15:29:06;100795.91;;;3.63;56.53
17260;BME280;8746;49.230;9.220;2023-02-28T15:31:35;100786.31;;;3.61;56.42